Hop! CRJ7 at Lyon on Jan 23rd 2020, runway incursion in flight

Last Update: January 30, 2020 / 16:54:53 GMT/Zulu time

Bookmark this article
Incident Facts

Date of incident
Jan 23, 2020

Classification
Incident

Airline
Hop!

Flight number
AF-1551

Departure
Lille, France

Destination
Lyon, France

Aircraft Registration
F-GRZL

Aircraft Type
Canadair CRJ-700

ICAO Type Designator
CRJ7

Airport ICAO Code
LFLL

A Hop! Canadair CRJ-700 on behalf of Air France, registration F-GRZL performing flight AF-1551 from Lille to Lyon (France), was on approach to Lyon, low visibility procedures were in effect, and was cleared for an ILS Cat III approach to runway 35R. During the final approach at about 07:50L (06:50Z) the aircraft however veered to the left, the aircraft initiated a go around and overflew the threshold of runway 35L (instead of assigned runway 35R). The aircraft positioned for another approach and landed without further incident.

The French BEA rated the occurrence a serious incident and opened an investigation.

Metars:
LFLL 230800Z VRB02KT 0200 R35L/0300N R17R/0200N R35R/0250N R17L/0300N FZFG VV/// M03/M03 Q1027 NOSIG=
LFLL 230730Z VRB02KT 0200 R35L/0250N R17R/0225N R35R/0200N R17L/0325N FZFG VV/// M03/M04 Q1027 NOSIG=
LFLL 230700Z 05003KT 0300 R35L/0400D R17R/0250N R35R/0300D R17L/0400N FZFG VV/// M03/M04 Q1027 TEMPO 0200=
LFLL 230630Z 01003KT 0400 R35L/0350N R17R/0225N R35R/0275D R17L/0325N FZFG VV/// M03/M04 Q1027 TEMPO 0200 FZFG VV///=
LFLL 230600Z 00000KT 2500 0600N R35L/P2000 R17R/0250D R35R/P2000 R17L/1800D BCFG BR NSC M02/M03 Q1027 TEMPO 0350 FZFG VV///=
LFLL 230530Z VRB01KT 2500 R17R/1200D BR NSC M02/M03 Q1027 TEMPO 0800 FZFG VV///=
LFLL 230500Z 00000KT 2500 BR NSC M02/M02 Q1027 NOSIG=
LFLL 230430Z 00000KT 2500 BR NSC M02/M02 Q1027 NOSIG=
LFLL 230400Z 36002KT 3000 BR NSC M01/M02 Q1028 NOSIG=
LFLL 230330Z 02002KT 3000 BR NSC M01/M02 Q1028 NOSIG=
LFLL 230300Z 04001KT 3000 BR NSC M01/M02 Q1028 TEMPO 0800=
LFLL 230230Z 02002KT 4000 BR NSC M01/M02 Q1028 NOSIG=
LFLL 230200Z 03002KT 4000 BR NSC M01/M02 Q1029 NOSIG=
Aircraft Registration Data
Registration mark
F-GRZL
Country of Registration
France
Manufacturer
BOMBARDIER INC.
Aircraft Model / Type
CL-600-2C10
ICAO Aircraft Type
CRJ7
Serial Number
Engine Count
Incident Facts

Date of incident
Jan 23, 2020

Classification
Incident

Airline
Hop!

Flight number
AF-1551

Departure
Lille, France

Destination
Lyon, France

Aircraft Registration
F-GRZL

Aircraft Type
Canadair CRJ-700

ICAO Type Designator
CRJ7

Airport ICAO Code
LFLL

This article is published under license from Avherald.com. © of text by Avherald.com.
Article source

You can read 4 more free articles without a subscription.

Subscribe now and continue reading without any limits!

Are you a subscriber?
Login
Subscribe

Read unlimited articles and receive our daily update briefing. Gain better insights into what is happening in commercial aviation safety.

Free newsletter

Want to know more and stay ahead? Get our free weekly newsletter and join 5152 existing subscribers.

By subscribing, you accept our terms and conditions and confirm that you've read our privacy policy.

Send tip

Support AeroInside by sending a small tip amount.

Related articles

Newest articles

Subscribe today

Are you researching aviation incidents? Get access to AeroInside Insights, unlimited read access and receive the daily newsletter.

Pick your plan and subscribe

Partner

Blockaviation logo

A new way to document and demonstrate airworthiness compliance and aircraft value. Find out more.

Virtual Speech logo

ELITE Simulation Solutions is a leading global provider of Flight Simulation Training Devices, IFR training software as well as flight controls and related services. Find out more.

Get updates

Never miss an article from AeroInside. Subscribe to our free weekly newsletter and join 5152 existing subscribers.

By subscribing, you accept our terms and conditions and that you've read our privacy policy.

AeroInside Blog
Popular aircraft
Airbus A320
Boeing 737-800
Boeing 737-800 MAX
Popular airlines
American Airlines
United
Delta
Air Canada
Lufthansa
British Airways